createdAt,value
2022-12-31T00:00:58.521Z,963.11
2022-12-31T00:02:02.574Z,963.08
2022-12-31T00:02:58.569Z,963.06
2022-12-31T00:03:58.526Z,963.01
2022-12-31T00:04:58.505Z,963.07
2022-12-31T00:05:58.550Z,962.99
2022-12-31T00:06:58.522Z,963.04
2022-12-31T00:07:59.013Z,963.05
2022-12-31T00:08:58.560Z,963.01
2022-12-31T00:09:58.457Z,963.04
2022-12-31T00:10:58.493Z,963.06
2022-12-31T00:11:58.555Z,963.08
2022-12-31T00:12:58.527Z,963.11
2022-12-31T00:13:58.609Z,963.05
2022-12-31T00:14:58.467Z,963.07
2022-12-31T00:15:58.545Z,963.04
2022-12-31T00:16:58.648Z,963.01
2022-12-31T00:17:58.565Z,963.03
2022-12-31T00:18:58.464Z,962.98
2022-12-31T00:19:58.621Z,962.97
2022-12-31T00:20:58.572Z,963
2022-12-31T00:21:58.547Z,962.97
2022-12-31T00:22:58.607Z,962.99
2022-12-31T00:23:58.576Z,962.97
2022-12-31T00:24:58.490Z,962.93
2022-12-31T00:25:58.499Z,962.92
2022-12-31T00:26:58.576Z,962.93
2022-12-31T00:27:58.652Z,962.92
2022-12-31T00:28:58.617Z,962.99
2022-12-31T00:30:04.208Z,962.94
2022-12-31T00:30:58.805Z,962.93
2022-12-31T00:31:58.616Z,962.92
2022-12-31T00:32:58.497Z,962.93
2022-12-31T00:36:58.571Z,962.91
2022-12-31T00:38:58.634Z,962.96
2022-12-31T00:39:58.674Z,962.92
2022-12-31T00:40:58.633Z,962.96
2022-12-31T00:41:58.603Z,962.98
2022-12-31T00:42:58.674Z,962.92
2022-12-31T00:43:58.636Z,962.96
2022-12-31T00:44:58.609Z,962.94
2022-12-31T00:45:58.702Z,962.95
2022-12-31T00:47:58.778Z,962.91
2022-12-31T00:48:59.781Z,962.88
2022-12-31T00:49:58.657Z,962.9
2022-12-31T00:50:58.727Z,962.88
2022-12-31T00:51:58.687Z,962.84
2022-12-31T00:53:58.718Z,962.8
2022-12-31T00:54:58.709Z,962.81
2022-12-31T00:55:58.655Z,962.83
2022-12-31T00:56:58.728Z,962.87
2022-12-31T00:58:00.329Z,962.95
2022-12-31T00:58:58.663Z,962.97
2022-12-31T00:59:58.571Z,963.03
2022-12-31T01:00:58.612Z,963.09
2022-12-31T01:01:58.841Z,963.13
2022-12-31T01:02:58.759Z,963.14
2022-12-31T01:03:58.602Z,963.13
2022-12-31T01:04:58.678Z,963.2
2022-12-31T01:05:58.632Z,963.18
2022-12-31T01:06:58.702Z,963.22
2022-12-31T01:07:58.665Z,963.21
2022-12-31T01:08:58.739Z,963.22
2022-12-31T01:09:58.727Z,963.24
2022-12-31T01:10:58.682Z,963.23
2022-12-31T01:11:58.750Z,963.27
2022-12-31T01:13:58.770Z,963.24
2022-12-31T01:14:58.769Z,963.21
2022-12-31T01:15:58.789Z,963.19
2022-12-31T01:16:58.702Z,963.21
2022-12-31T01:17:58.758Z,963.17
2022-12-31T01:18:58.765Z,963.14
2022-12-31T01:20:58.765Z,963.13
2022-12-31T01:21:58.744Z,963.17
2022-12-31T01:22:58.699Z,963.19
2022-12-31T01:24:00.004Z,963.22
2022-12-31T01:24:58.728Z,963.25
2022-12-31T01:25:58.711Z,963.23
2022-12-31T01:26:58.655Z,963.26
2022-12-31T01:27:58.645Z,963.27
2022-12-31T01:28:58.636Z,963.25
2022-12-31T01:29:58.790Z,963.26
2022-12-31T01:30:58.835Z,963.25
2022-12-31T01:31:58.709Z,963.26
2022-12-31T01:32:58.784Z,963.25
2022-12-31T01:33:58.751Z,963.22
2022-12-31T01:34:58.712Z,963.25
2022-12-31T01:35:58.807Z,963.24
2022-12-31T01:36:58.753Z,963.22
2022-12-31T01:38:58.902Z,963.21
2022-12-31T01:39:58.777Z,963.22
2022-12-31T01:40:58.686Z,963.2
2022-12-31T01:41:58.794Z,963.15
2022-12-31T01:42:58.769Z,963.14
2022-12-31T01:43:58.766Z,963.16
2022-12-31T01:44:58.681Z,963.17
2022-12-31T01:45:58.781Z,963.21
2022-12-31T01:46:58.722Z,963.22
2022-12-31T01:47:58.697Z,963.24
2022-12-31T01:48:58.764Z,963.22
2022-12-31T01:49:58.686Z,963.28
2022-12-31T01:50:58.698Z,963.29
2022-12-31T01:51:58.693Z,963.27
2022-12-31T01:52:58.845Z,963.25
2022-12-31T01:53:58.808Z,963.28
2022-12-31T01:54:58.706Z,963.26
2022-12-31T01:55:58.853Z,963.28
2022-12-31T01:57:58.778Z,963.27
2022-12-31T01:58:58.857Z,963.28
2022-12-31T01:59:58.808Z,963.29
2022-12-31T02:00:58.768Z,963.32
2022-12-31T02:01:59.806Z,963.31
2022-12-31T02:02:58.835Z,963.3
2022-12-31T02:03:58.794Z,963.27
2022-12-31T02:04:58.852Z,963.31
2022-12-31T02:05:58.818Z,963.35
2022-12-31T02:06:58.882Z,963.33
2022-12-31T02:07:58.781Z,963.32
2022-12-31T02:08:58.829Z,963.31
2022-12-31T02:09:58.785Z,963.33
2022-12-31T02:11:58.839Z,963.31
2022-12-31T02:12:58.908Z,963.3
2022-12-31T02:13:58.961Z,963.34
2022-12-31T02:14:58.852Z,963.36
2022-12-31T02:15:58.991Z,963.31
2022-12-31T02:16:58.754Z,963.33
2022-12-31T02:17:58.760Z,963.3
2022-12-31T02:19:58.875Z,963.28
2022-12-31T02:20:58.775Z,963.29
2022-12-31T02:22:58.988Z,963.26
2022-12-31T02:23:58.877Z,963.34
2022-12-31T02:24:58.931Z,963.28
2022-12-31T02:25:58.778Z,963.3
2022-12-31T02:26:58.771Z,963.26
2022-12-31T02:27:58.927Z,963.28
2022-12-31T02:28:58.889Z,963.29
2022-12-31T02:29:58.793Z,963.27
2022-12-31T02:30:58.954Z,963.32
2022-12-31T02:31:58.893Z,963.3
2022-12-31T02:32:58.880Z,963.32
2022-12-31T02:33:58.928Z,963.27
2022-12-31T02:34:58.914Z,963.33
2022-12-31T02:37:58.943Z,963.34
2022-12-31T02:38:58.839Z,963.36
2022-12-31T02:39:58.821Z,963.34
2022-12-31T02:40:58.924Z,963.35
2022-12-31T02:41:58.875Z,963.34
2022-12-31T02:42:58.839Z,963.36
2022-12-31T02:43:58.957Z,963.37
2022-12-31T02:44:58.979Z,963.42
2022-12-31T02:45:58.831Z,963.45
2022-12-31T02:46:58.914Z,963.46
2022-12-31T02:49:58.835Z,963.45
2022-12-31T02:50:58.848Z,963.47
2022-12-31T02:51:58.849Z,963.43
2022-12-31T02:52:58.925Z,963.44
2022-12-31T02:53:58.989Z,963.43
2022-12-31T02:54:58.863Z,963.44
2022-12-31T02:55:58.849Z,963.43
2022-12-31T02:56:58.853Z,963.51
2022-12-31T02:57:58.847Z,963.55
2022-12-31T02:58:58.924Z,963.57
2022-12-31T02:59:58.850Z,963.54
2022-12-31T03:00:58.933Z,963.6
2022-12-31T03:01:58.928Z,963.62
2022-12-31T03:02:58.964Z,963.61
2022-12-31T03:06:58.960Z,963.62
2022-12-31T03:07:58.951Z,963.58
2022-12-31T03:08:58.868Z,963.63
2022-12-31T03:09:58.885Z,963.57
2022-12-31T03:11:58.968Z,963.51
2022-12-31T03:12:58.911Z,963.52
2022-12-31T03:14:58.917Z,963.55
2022-12-31T03:15:58.963Z,963.56
2022-12-31T03:16:59.068Z,963.59
2022-12-31T03:18:58.912Z,963.55
2022-12-31T03:19:59.074Z,963.58
2022-12-31T03:20:59.019Z,963.6
2022-12-31T03:21:58.916Z,963.61
2022-12-31T03:22:58.917Z,963.59
2022-12-31T03:23:58.913Z,963.6
2022-12-31T03:24:58.913Z,963.62
2022-12-31T03:25:58.963Z,963.63
2022-12-31T03:26:59.041Z,963.64
2022-12-31T03:28:58.927Z,963.66
2022-12-31T03:29:59.047Z,963.68
2022-12-31T03:30:58.951Z,963.67
2022-12-31T03:31:59.083Z,963.64
2022-12-31T03:32:59.037Z,963.69
2022-12-31T03:35:00.288Z,963.71
2022-12-31T03:36:59.120Z,963.76
2022-12-31T03:37:59.121Z,963.75
2022-12-31T03:38:59.048Z,963.77
2022-12-31T03:39:59.017Z,963.8
2022-12-31T03:40:58.991Z,963.81
2022-12-31T03:41:59.056Z,963.84
2022-12-31T03:42:59.023Z,963.82
2022-12-31T03:43:59.101Z,963.83
2022-12-31T03:44:59.063Z,963.84
2022-12-31T03:45:59.000Z,963.79
2022-12-31T03:46:58.993Z,963.8
2022-12-31T03:47:59.079Z,963.79
2022-12-31T03:48:59.066Z,963.8
2022-12-31T03:49:58.983Z,963.82
2022-12-31T03:50:59.077Z,963.81
2022-12-31T03:51:59.067Z,963.84
2022-12-31T03:52:59.100Z,963.81
2022-12-31T03:53:58.982Z,963.85
2022-12-31T03:55:00.399Z,963.89
2022-12-31T03:55:59.111Z,963.9
2022-12-31T03:57:00.327Z,963.89
2022-12-31T03:57:59.142Z,963.88
2022-12-31T03:58:59.121Z,963.89
2022-12-31T03:59:59.081Z,963.88
2022-12-31T04:00:59.252Z,963.9
2022-12-31T04:03:59.147Z,963.91
2022-12-31T04:04:59.154Z,963.9
2022-12-31T04:06:59.143Z,963.94
2022-12-31T04:07:59.023Z,963.93
2022-12-31T04:08:59.090Z,963.92
2022-12-31T04:09:59.057Z,963.93
2022-12-31T04:10:59.132Z,963.97
2022-12-31T04:11:59.096Z,963.93
2022-12-31T04:12:59.040Z,963.92
2022-12-31T04:13:59.142Z,963.9
2022-12-31T04:14:59.100Z,963.91
2022-12-31T04:15:59.220Z,963.9
2022-12-31T04:16:59.137Z,963.97
2022-12-31T04:17:59.114Z,963.98
2022-12-31T04:21:00.045Z,963.97
2022-12-31T04:21:59.062Z,964
2022-12-31T04:22:59.145Z,964.01
2022-12-31T04:23:59.063Z,963.95
2022-12-31T04:24:59.182Z,963.93
2022-12-31T04:25:59.059Z,963.95
2022-12-31T04:27:03.729Z,963.9
2022-12-31T04:27:59.247Z,963.94
2022-12-31T04:28:59.171Z,963.99
2022-12-31T04:30:00.130Z,964
2022-12-31T04:30:59.067Z,964.04
2022-12-31T04:31:59.190Z,964.08
2022-12-31T04:32:59.125Z,964.06
2022-12-31T04:33:59.188Z,964.1
2022-12-31T04:34:59.091Z,964.11
2022-12-31T04:35:59.227Z,964.07
2022-12-31T04:36:59.203Z,964.05
2022-12-31T04:37:59.080Z,964.08
2022-12-31T04:38:59.227Z,964.05
2022-12-31T04:40:05.341Z,964.07
2022-12-31T04:40:59.225Z,964.06
2022-12-31T04:41:59.147Z,964.07
2022-12-31T04:42:59.105Z,964.04
2022-12-31T04:43:59.095Z,964.06
2022-12-31T04:44:59.265Z,964.04
2022-12-31T04:45:59.243Z,963.97
2022-12-31T04:46:59.099Z,964.03
2022-12-31T04:47:59.266Z,963.97
2022-12-31T04:48:59.214Z,963.96
2022-12-31T04:49:59.176Z,963.99
2022-12-31T04:51:59.210Z,964.01
2022-12-31T04:52:59.120Z,963.99
2022-12-31T04:54:59.267Z,964.04
2022-12-31T04:55:59.319Z,964.08
2022-12-31T04:56:59.266Z,964.13
2022-12-31T04:58:59.303Z,964.17
2022-12-31T04:59:59.159Z,964.18
2022-12-31T05:00:59.275Z,964.22
2022-12-31T05:01:59.524Z,964.2
2022-12-31T05:02:59.324Z,964.19
2022-12-31T05:03:59.235Z,964.16
2022-12-31T05:04:59.153Z,964.12
2022-12-31T05:05:59.269Z,964.1
2022-12-31T05:06:59.240Z,964.08
2022-12-31T05:07:59.307Z,964.02
2022-12-31T05:08:59.188Z,963.98
2022-12-31T05:09:59.214Z,963.99
2022-12-31T05:11:00.536Z,964.02
2022-12-31T05:11:59.276Z,963.99
2022-12-31T05:12:59.260Z,963.97
2022-12-31T05:13:59.225Z,963.93
2022-12-31T05:15:59.329Z,963.95
2022-12-31T05:16:59.442Z,964
2022-12-31T05:17:59.282Z,964.04
2022-12-31T05:18:59.249Z,964.03
2022-12-31T05:19:59.217Z,964.04
2022-12-31T05:22:59.428Z,964.06
2022-12-31T05:23:59.320Z,964.08
2022-12-31T05:24:59.203Z,964.03
2022-12-31T05:26:00.455Z,964.08
2022-12-31T05:26:59.214Z,964.09
2022-12-31T05:28:59.345Z,964.12
2022-12-31T05:30:59.409Z,964.15
2022-12-31T05:31:59.242Z,964.12
2022-12-31T05:33:59.373Z,964.09
2022-12-31T05:34:59.246Z,964.1
2022-12-31T05:35:59.240Z,964.14
2022-12-31T05:36:59.235Z,964.13
2022-12-31T05:37:59.355Z,964.14
2022-12-31T05:38:59.231Z,964.07
2022-12-31T05:39:59.411Z,964.08
2022-12-31T05:40:59.370Z,964.04
2022-12-31T05:41:59.318Z,964.03
2022-12-31T05:42:59.411Z,964.01
2022-12-31T05:45:59.500Z,964.04
2022-12-31T05:46:59.270Z,964.07
2022-12-31T05:47:59.314Z,964.08
2022-12-31T05:49:59.380Z,964.12
2022-12-31T05:50:59.388Z,964.13
2022-12-31T05:51:59.391Z,964.16
2022-12-31T05:52:59.371Z,964.18
2022-12-31T05:53:59.370Z,964.16
2022-12-31T05:54:59.276Z,964.2
2022-12-31T05:55:59.370Z,964.22
2022-12-31T05:56:59.281Z,964.24
2022-12-31T05:57:59.309Z,964.27
2022-12-31T05:58:59.399Z,964.33
2022-12-31T05:59:59.282Z,964.34
2022-12-31T06:00:59.480Z,964.33
2022-12-31T06:01:59.369Z,964.37
2022-12-31T06:04:59.375Z,964.42
2022-12-31T06:05:59.383Z,964.4
2022-12-31T06:06:59.291Z,964.37
2022-12-31T06:07:59.396Z,964.35
2022-12-31T06:09:00.697Z,964.34
2022-12-31T06:09:59.307Z,964.35
2022-12-31T06:10:59.389Z,964.39
2022-12-31T06:11:59.471Z,964.42
2022-12-31T06:12:59.418Z,964.45
2022-12-31T06:13:59.320Z,964.46
2022-12-31T06:14:59.572Z,964.5
2022-12-31T06:15:59.459Z,964.49
2022-12-31T06:16:59.364Z,964.5
2022-12-31T06:17:59.461Z,964.49
2022-12-31T06:18:59.446Z,964.45
2022-12-31T06:19:59.409Z,964.5
2022-12-31T06:20:59.620Z,964.51
2022-12-31T06:21:59.441Z,964.47
2022-12-31T06:22:59.404Z,964.46
2022-12-31T06:23:59.475Z,964.49
2022-12-31T06:24:59.448Z,964.47
2022-12-31T06:25:59.404Z,964.44
2022-12-31T06:26:59.373Z,964.39
2022-12-31T06:27:59.451Z,964.37
2022-12-31T06:28:59.350Z,964.39
2022-12-31T06:29:59.490Z,964.38
2022-12-31T06:30:59.392Z,964.39
2022-12-31T06:32:59.569Z,964.38
2022-12-31T06:35:59.461Z,964.35
2022-12-31T06:36:59.461Z,964.38
2022-12-31T06:38:59.385Z,964.39
2022-12-31T06:39:59.373Z,964.45
2022-12-31T06:40:59.392Z,964.44
2022-12-31T06:43:00.054Z,964.48
2022-12-31T06:43:59.438Z,964.52
2022-12-31T06:44:59.389Z,964.54
2022-12-31T06:45:59.472Z,964.55
2022-12-31T06:47:00.491Z,964.59
2022-12-31T06:47:59.529Z,964.6
2022-12-31T06:48:59.482Z,964.61
2022-12-31T06:49:59.489Z,964.62
2022-12-31T06:50:59.513Z,964.66
2022-12-31T06:51:59.485Z,964.64
2022-12-31T06:52:59.450Z,964.69
2022-12-31T06:53:59.413Z,964.66
2022-12-31T06:54:59.499Z,964.64
2022-12-31T06:55:59.439Z,964.65
2022-12-31T06:56:59.413Z,964.61
2022-12-31T06:57:59.477Z,964.59
2022-12-31T06:58:59.413Z,964.6
2022-12-31T06:59:59.525Z,964.58
2022-12-31T07:00:59.449Z,964.61
2022-12-31T07:02:59.547Z,964.64
2022-12-31T07:03:59.513Z,964.65
2022-12-31T07:04:59.567Z,964.66
2022-12-31T07:06:59.580Z,964.62
2022-12-31T07:07:59.469Z,964.66
2022-12-31T07:08:59.455Z,964.61
2022-12-31T07:09:59.515Z,964.63
2022-12-31T07:10:59.449Z,964.61
2022-12-31T07:11:59.545Z,964.64
2022-12-31T07:12:59.479Z,964.61
2022-12-31T07:13:59.580Z,964.62
2022-12-31T07:14:59.462Z,964.67
2022-12-31T07:15:59.668Z,964.65
2022-12-31T07:16:59.480Z,964.64
2022-12-31T07:17:59.540Z,964.63
2022-12-31T07:18:59.465Z,964.65
2022-12-31T07:19:59.473Z,964.68
2022-12-31T07:20:59.545Z,964.67
2022-12-31T07:22:00.619Z,964.72
2022-12-31T07:22:59.593Z,964.73
2022-12-31T07:23:59.631Z,964.74
2022-12-31T07:24:59.629Z,964.73
2022-12-31T07:25:59.587Z,964.72
2022-12-31T07:28:00.664Z,964.71
2022-12-31T07:28:59.603Z,964.64
2022-12-31T07:29:59.567Z,964.66
2022-12-31T07:30:59.611Z,964.69
2022-12-31T07:31:59.604Z,964.7
2022-12-31T07:32:59.581Z,964.71
2022-12-31T07:33:59.739Z,964.7
2022-12-31T07:34:59.603Z,964.74
2022-12-31T07:35:59.574Z,964.73
2022-12-31T07:36:59.502Z,964.78
2022-12-31T07:37:59.622Z,964.77
2022-12-31T07:38:59.579Z,964.81
2022-12-31T07:39:59.649Z,964.75
2022-12-31T07:41:01.615Z,964.78
2022-12-31T07:41:59.574Z,964.75
2022-12-31T07:42:59.527Z,964.78
2022-12-31T07:43:59.611Z,964.8
2022-12-31T07:44:59.523Z,964.82
2022-12-31T07:45:59.545Z,964.88
2022-12-31T07:46:59.673Z,964.86
2022-12-31T07:48:02.395Z,964.87
2022-12-31T07:49:59.555Z,964.9
2022-12-31T07:51:59.617Z,964.97
2022-12-31T07:52:59.635Z,965
2022-12-31T07:53:59.567Z,965.02
2022-12-31T07:54:59.670Z,965.08
2022-12-31T07:56:59.709Z,965.09
2022-12-31T07:57:59.585Z,965.14
2022-12-31T07:59:59.793Z,965.13
2022-12-31T08:01:59.770Z,965.11
2022-12-31T08:02:59.648Z,965.08
2022-12-31T08:04:59.665Z,965.04
2022-12-31T08:05:59.585Z,965.03
2022-12-31T08:06:59.684Z,965.02
2022-12-31T08:08:59.702Z,965.01
2022-12-31T08:09:59.608Z,965.02
2022-12-31T08:10:59.671Z,964.95
2022-12-31T08:11:59.727Z,964.99
2022-12-31T08:12:59.694Z,965.02
2022-12-31T08:13:59.653Z,964.95
2022-12-31T08:15:00.934Z,964.98
2022-12-31T08:15:59.716Z,965
2022-12-31T08:18:59.816Z,965.02
2022-12-31T08:19:59.787Z,965
2022-12-31T08:20:59.624Z,965.04
2022-12-31T08:21:59.700Z,965
2022-12-31T08:22:59.775Z,964.98
2022-12-31T08:23:59.669Z,965.04
2022-12-31T08:25:59.752Z,965.08
2022-12-31T08:26:59.768Z,965.11
2022-12-31T08:27:59.722Z,965.15
2022-12-31T08:28:59.828Z,965.18
2022-12-31T08:29:59.744Z,965.17
2022-12-31T08:30:59.722Z,965.21
2022-12-31T08:31:59.775Z,965.24
2022-12-31T08:34:03.817Z,965.34
2022-12-31T08:34:59.827Z,965.31
2022-12-31T08:35:59.766Z,965.26
2022-12-31T08:36:59.724Z,965.31
2022-12-31T08:37:59.828Z,965.32
2022-12-31T08:38:59.767Z,965.36
2022-12-31T08:39:59.731Z,965.38
2022-12-31T08:41:01.084Z,965.39
2022-12-31T08:42:59.836Z,965.38
2022-12-31T08:43:59.801Z,965.35
2022-12-31T08:44:59.848Z,965.32
2022-12-31T08:45:59.821Z,965.3
2022-12-31T08:46:59.702Z,965.22
2022-12-31T08:48:00.165Z,965.17
2022-12-31T08:48:59.746Z,965.11
2022-12-31T08:49:59.692Z,965.12
2022-12-31T08:50:59.693Z,965.08
2022-12-31T08:51:59.729Z,965.09
2022-12-31T08:52:59.689Z,965.08
2022-12-31T08:53:59.783Z,965.12
2022-12-31T08:54:59.748Z,965.11
2022-12-31T08:55:59.868Z,965.07
2022-12-31T08:56:59.792Z,965.1
2022-12-31T08:57:59.849Z,965.14
2022-12-31T08:58:59.714Z,965.08
2022-12-31T08:59:59.708Z,965.12
2022-12-31T09:00:59.822Z,965.09
2022-12-31T09:01:59.841Z,965.06
2022-12-31T09:02:59.789Z,965.12
2022-12-31T09:03:59.868Z,965.08
2022-12-31T09:05:59.897Z,965.06
2022-12-31T09:06:59.892Z,965.07
2022-12-31T09:07:59.905Z,965.05
2022-12-31T09:08:59.804Z,965.01
2022-12-31T09:09:59.877Z,965.02
2022-12-31T09:10:59.783Z,965.06
2022-12-31T09:11:59.806Z,965.05
2022-12-31T09:12:59.876Z,965.06
2022-12-31T09:13:59.764Z,965.09
2022-12-31T09:14:59.814Z,965.08
2022-12-31T09:15:59.881Z,965.1
2022-12-31T09:17:59.805Z,965.12
2022-12-31T09:18:59.885Z,965.14
2022-12-31T09:19:59.893Z,965.17
2022-12-31T09:20:59.916Z,965.19
2022-12-31T09:22:59.996Z,965.18
2022-12-31T09:24:03.110Z,965.19
2022-12-31T09:24:59.893Z,965.17
2022-12-31T09:25:59.897Z,965.19
2022-12-31T09:26:59.919Z,965.21
2022-12-31T09:27:59.950Z,965.16
2022-12-31T09:28:59.902Z,965.22
2022-12-31T09:29:59.830Z,965.23
2022-12-31T09:30:59.890Z,965.16
2022-12-31T09:33:00.983Z,965.14
2022-12-31T09:33:59.927Z,965.15
2022-12-31T09:34:59.877Z,965.17
2022-12-31T09:35:59.806Z,965.23
2022-12-31T09:36:59.802Z,965.22
2022-12-31T09:37:59.935Z,965.18
2022-12-31T09:38:59.950Z,965.21
2022-12-31T09:39:59.763Z,965.24
2022-12-31T09:40:59.850Z,965.23
2022-12-31T09:41:59.881Z,965.22
2022-12-31T09:42:59.812Z,965.26
2022-12-31T09:44:01.297Z,965.25
2022-12-31T09:44:59.845Z,965.29
2022-12-31T09:46:00.004Z,965.28
2022-12-31T09:46:59.927Z,965.29
2022-12-31T09:47:59.959Z,965.32
2022-12-31T09:48:59.837Z,965.29
2022-12-31T09:50:59.919Z,965.32
2022-12-31T09:52:59.976Z,965.33
2022-12-31T09:54:01.044Z,965.34
2022-12-31T09:57:00.037Z,965.31
2022-12-31T09:57:59.956Z,965.3
2022-12-31T09:59:00.051Z,965.29
2022-12-31T09:59:59.976Z,965.28
2022-12-31T10:01:00.034Z,965.27
2022-12-31T10:02:59.912Z,965.22
2022-12-31T10:03:59.947Z,965.2
2022-12-31T10:04:59.863Z,965.22
2022-12-31T10:05:59.982Z,965.23
2022-12-31T10:08:00.015Z,965.24
2022-12-31T10:08:59.982Z,965.22
2022-12-31T10:09:59.886Z,965.14
2022-12-31T10:12:01.335Z,965.13
2022-12-31T10:13:02.133Z,965.06
2022-12-31T10:15:00.060Z,965.07
2022-12-31T10:15:59.979Z,965.05
2022-12-31T10:16:59.937Z,965.03
2022-12-31T10:18:00.002Z,965.01
2022-12-31T10:18:59.976Z,965
2022-12-31T10:20:01.158Z,965.02
2022-12-31T10:22:00.098Z,965.04
2022-12-31T10:22:59.961Z,965.09
2022-12-31T10:24:00.033Z,965.08
2022-12-31T10:24:59.972Z,965.09
2022-12-31T10:26:00.119Z,965.07
2022-12-31T10:26:59.938Z,965.08
2022-12-31T10:27:59.984Z,965.09
2022-12-31T10:29:00.116Z,965.06
2022-12-31T10:29:59.939Z,965.03
2022-12-31T10:32:00.068Z,964.98
2022-12-31T10:33:00.047Z,964.96
2022-12-31T10:33:59.984Z,964.94
2022-12-31T10:34:59.994Z,964.95
2022-12-31T10:36:00.020Z,964.91
2022-12-31T10:37:00.107Z,964.88
2022-12-31T10:38:00.065Z,964.9
2022-12-31T10:39:00.032Z,964.92
2022-12-31T10:40:00.161Z,964.88
2022-12-31T10:41:00.136Z,964.89
2022-12-31T10:43:00.066Z,964.86
2022-12-31T10:44:00.110Z,964.79
2022-12-31T10:45:00.044Z,964.71
2022-12-31T10:46:01.344Z,964.65
2022-12-31T10:48:00.140Z,964.6
2022-12-31T10:48:59.973Z,964.64
2022-12-31T10:51:00.047Z,964.65
2022-12-31T10:51:59.976Z,964.64
2022-12-31T10:53:00.091Z,964.67
2022-12-31T10:54:00.048Z,964.64
2022-12-31T10:55:00.023Z,964.62
2022-12-31T10:58:04.389Z,964.57
2022-12-31T10:59:00.370Z,964.6
2022-12-31T11:00:00.054Z,964.58
2022-12-31T11:01:00.293Z,964.55
2022-12-31T11:03:00.130Z,964.54
2022-12-31T11:05:00.204Z,964.5
2022-12-31T11:07:00.136Z,964.47
2022-12-31T11:08:00.057Z,964.43
2022-12-31T11:09:00.181Z,964.41
2022-12-31T11:10:00.207Z,964.4
2022-12-31T11:11:00.025Z,964.39
2022-12-31T11:12:04.470Z,964.34
2022-12-31T11:13:00.034Z,964.37
2022-12-31T11:14:00.030Z,964.36
2022-12-31T11:15:00.177Z,964.32
2022-12-31T11:16:00.257Z,964.29
2022-12-31T11:17:00.114Z,964.3
2022-12-31T11:18:00.089Z,964.26
2022-12-31T11:20:00.183Z,964.24
2022-12-31T11:21:00.196Z,964.23
2022-12-31T11:22:00.152Z,964.22
2022-12-31T11:23:00.132Z,964.25
2022-12-31T11:24:00.125Z,964.22
2022-12-31T11:25:00.062Z,964.23
2022-12-31T11:26:00.128Z,964.19
2022-12-31T11:27:00.195Z,964.21
2022-12-31T11:28:00.162Z,964.23
2022-12-31T11:29:00.139Z,964.2
2022-12-31T11:30:00.079Z,964.22
2022-12-31T11:31:00.249Z,964.23
2022-12-31T11:33:00.199Z,964.21
2022-12-31T11:34:00.075Z,964.2
2022-12-31T11:35:00.164Z,964.19
2022-12-31T11:36:00.097Z,964.16
2022-12-31T11:38:00.112Z,964.15
2022-12-31T11:39:00.215Z,964.14
2022-12-31T11:41:00.127Z,964.16
2022-12-31T11:42:00.123Z,964.11
2022-12-31T11:44:00.356Z,964.09
2022-12-31T11:45:00.237Z,964.11
2022-12-31T11:46:00.258Z,964.07
2022-12-31T11:47:00.137Z,964.05
2022-12-31T11:49:00.237Z,964.01
2022-12-31T11:50:00.275Z,963.99
2022-12-31T11:52:00.295Z,963.94
2022-12-31T11:53:00.282Z,963.9
2022-12-31T11:54:00.153Z,963.87
2022-12-31T11:55:00.161Z,963.83
2022-12-31T11:56:00.191Z,963.81
2022-12-31T11:57:00.224Z,963.84
2022-12-31T11:58:00.204Z,963.81
2022-12-31T11:59:02.496Z,963.8
2022-12-31T12:00:00.282Z,963.81
2022-12-31T12:01:00.212Z,963.79
2022-12-31T12:04:00.312Z,963.74
2022-12-31T12:06:00.232Z,963.72
2022-12-31T12:08:00.272Z,963.69
2022-12-31T12:09:00.196Z,963.67
2022-12-31T12:10:00.159Z,963.68
2022-12-31T12:12:00.247Z,963.69
2022-12-31T12:13:00.222Z,963.65
2022-12-31T12:14:00.174Z,963.64
2022-12-31T12:16:00.285Z,963.65
2022-12-31T12:17:04.628Z,963.64
2022-12-31T12:18:00.207Z,963.61
2022-12-31T12:19:00.325Z,963.63
2022-12-31T12:20:00.213Z,963.59
2022-12-31T12:21:00.199Z,963.55
2022-12-31T12:22:00.230Z,963.53
2022-12-31T12:23:00.208Z,963.54
2022-12-31T12:24:00.265Z,963.53
2022-12-31T12:26:00.281Z,963.55
2022-12-31T12:27:00.300Z,963.59
2022-12-31T12:28:00.239Z,963.54
2022-12-31T12:29:00.215Z,963.52
2022-12-31T12:30:00.288Z,963.51
2022-12-31T12:32:00.318Z,963.47
2022-12-31T12:34:00.444Z,963.48
2022-12-31T12:35:00.487Z,963.47
2022-12-31T12:37:00.397Z,963.45
2022-12-31T12:38:00.266Z,963.49
2022-12-31T12:39:00.391Z,963.48
2022-12-31T12:40:00.250Z,963.46
2022-12-31T12:41:00.457Z,963.45
2022-12-31T12:42:00.311Z,963.46
2022-12-31T12:43:00.255Z,963.44
2022-12-31T12:44:00.334Z,963.41
2022-12-31T12:45:00.405Z,963.39
2022-12-31T12:46:00.386Z,963.42
2022-12-31T12:47:00.386Z,963.41
2022-12-31T12:48:00.409Z,963.39
2022-12-31T12:53:00.344Z,963.37
2022-12-31T12:54:01.536Z,963.36
2022-12-31T12:55:00.383Z,963.34
2022-12-31T12:56:00.336Z,963.33
2022-12-31T12:57:00.268Z,963.35
2022-12-31T12:58:00.385Z,963.31
2022-12-31T12:59:00.365Z,963.27
2022-12-31T13:00:00.321Z,963.26
2022-12-31T13:01:00.506Z,963.23
2022-12-31T13:02:00.493Z,963.26
2022-12-31T13:03:00.375Z,963.29
2022-12-31T13:04:32.794Z,963.26
2022-12-31T13:05:00.288Z,963.22
2022-12-31T13:06:00.570Z,963.21
2022-12-31T13:07:00.321Z,963.23
2022-12-31T13:08:00.360Z,963.2
2022-12-31T13:10:00.507Z,963.22
2022-12-31T13:11:00.458Z,963.19
2022-12-31T13:12:05.542Z,963.2
2022-12-31T13:13:24.788Z,963.19
2022-12-31T13:15:00.421Z,963.18
2022-12-31T13:16:00.487Z,963.17
2022-12-31T13:17:00.332Z,963.18
2022-12-31T13:18:01.990Z,963.16
2022-12-31T13:19:00.406Z,963.15
2022-12-31T13:20:00.504Z,963.16
2022-12-31T13:21:00.461Z,963.13
2022-12-31T13:23:00.545Z,963.14
2022-12-31T13:24:00.479Z,963.16
2022-12-31T13:26:00.378Z,963.11
2022-12-31T13:28:00.514Z,963.12
2022-12-31T13:29:00.392Z,963.08
2022-12-31T13:30:00.360Z,963.09
2022-12-31T13:31:04.979Z,963.1
2022-12-31T13:32:00.570Z,963.07
2022-12-31T13:33:00.380Z,963.05
2022-12-31T13:34:00.437Z,963.04
2022-12-31T13:35:00.488Z,963.03
2022-12-31T13:36:00.471Z,963.01
2022-12-31T13:38:05.267Z,963
2022-12-31T13:39:00.497Z,963.03
2022-12-31T13:40:00.393Z,963.04
2022-12-31T13:41:00.398Z,963.02
2022-12-31T13:43:00.512Z,963.03
2022-12-31T13:46:00.653Z,963.06
2022-12-31T13:48:00.555Z,963.03
2022-12-31T13:49:00.571Z,963.02
2022-12-31T13:50:00.520Z,963.04
2022-12-31T13:51:00.406Z,963
2022-12-31T13:52:01.867Z,963.05
2022-12-31T13:53:00.541Z,963.03
2022-12-31T13:55:00.529Z,963.01
2022-12-31T13:58:01.469Z,963.04
2022-12-31T13:59:00.551Z,963.01
2022-12-31T14:00:00.512Z,963.08
2022-12-31T14:01:00.681Z,963.01
2022-12-31T14:02:00.680Z,963.04
2022-12-31T14:03:00.480Z,963.05
2022-12-31T14:04:00.572Z,963.04
2022-12-31T14:05:00.544Z,963.02
2022-12-31T14:06:00.527Z,962.98
2022-12-31T14:07:00.445Z,963.02
2022-12-31T14:08:00.458Z,963.03
2022-12-31T14:10:00.541Z,963.02
2022-12-31T14:11:00.572Z,963.06
2022-12-31T14:12:00.540Z,963.03
2022-12-31T14:13:00.585Z,963.04
2022-12-31T14:14:00.577Z,963.1
2022-12-31T14:15:00.572Z,963.09
2022-12-31T14:16:00.601Z,963.08
2022-12-31T14:17:00.565Z,963.1
2022-12-31T14:18:00.644Z,963.14
2022-12-31T14:19:00.600Z,963.11
2022-12-31T14:20:00.590Z,963.18
2022-12-31T14:21:00.653Z,963.2
2022-12-31T14:22:00.599Z,963.19
2022-12-31T14:24:00.657Z,963.16
2022-12-31T14:26:00.518Z,963.14
2022-12-31T14:28:00.493Z,963.15
2022-12-31T14:29:00.507Z,963.12
2022-12-31T14:30:00.651Z,963.13
2022-12-31T14:31:00.608Z,963.15
2022-12-31T14:32:00.655Z,963.11
2022-12-31T14:33:00.550Z,963.14
2022-12-31T14:35:00.669Z,963.18
2022-12-31T14:36:03.986Z,963.14
2022-12-31T14:39:00.652Z,963.15
2022-12-31T14:40:00.626Z,963.18